Time;durP1;ratioP1;P1;durP2;ratioP2;P2;SDS_P1;SDS_P2;PMS_P1;PMS_P2;Temp;Humidity;BMP_temperature;BMP_pressure;BME280_temperature;BME280_humidity;BME280_pressure;Samples;Min_cycle;Max_cycle;Signal;HPM_P1;HPM_P2
2023/05/02 00:00:12;;;;;;;;;8.00;8.00;;;;;14.75;68.42;101765.28;5038587;28;45280;-66
2023/05/02 00:02:37;;;;;;;;;9.00;8.00;;;;;14.69;68.48;101760.13;5038769;28;45528;-65
2023/05/02 00:05:04;;;;;;;;;7.00;7.00;;;;;14.60;68.61;101759.50;5019831;28;45261;-66
2023/05/02 00:07:29;;;;;;;;;7.75;7.75;;;;;14.66;68.50;101763.78;5036946;28;45665;-66
2023/05/02 00:09:55;;;;;;;;;8.00;6.25;;;;;14.63;68.65;101766.56;5038228;28;45450;-66
2023/05/02 00:12:20;;;;;;;;;9.00;9.00;;;;;14.60;68.59;101767.56;5020613;28;47295;-66
2023/05/02 00:14:45;;;;;;;;;7.75;6.50;;;;;14.56;68.84;101765.00;5004613;28;45457;-66
2023/05/02 00:17:18;;;;;;;;;8.00;7.50;;;;;14.52;68.79;101750.78;5026788;28;45367;-66
2023/05/02 00:19:43;;;;;;;;;9.75;8.00;;;;;14.53;69.02;101759.72;5020533;28;45450;-65
2023/05/02 00:22:09;;;;;;;;;8.00;8.00;;;;;14.49;68.77;101750.03;5036961;28;47124;-66
2023/05/02 00:24:34;;;;;;;;;9.75;9.75;;;;;14.35;69.02;101740.59;5038066;28;45494;-66
2023/05/02 00:27:00;;;;;;;;;9.25;8.00;;;;;14.50;69.18;101759.81;5012572;28;45458;-65
2023/05/02 00:29:25;;;;;;;;;10.00;10.00;;;;;14.39;69.09;101738.69;5038240;28;45388;-66
2023/05/02 00:31:50;;;;;;;;;10.00;8.25;;;;;14.41;69.44;101748.44;5038369;28;45699;-65
2023/05/02 00:34:16;;;;;;;;;8.75;8.75;;;;;14.40;69.05;101746.69;5038124;28;45423;-66
2023/05/02 00:36:41;;;;;;;;;9.25;8.00;;;;;14.37;69.46;101745.94;5038219;28;45674;-66
2023/05/02 00:39:06;;;;;;;;;10.25;9.00;;;;;14.37;69.44;101749.47;5019959;28;45408;-66
2023/05/02 00:41:32;;;;;;;;;10.00;10.00;;;;;14.41;69.41;101755.63;5038271;28;45448;-66
2023/05/02 00:43:57;;;;;;;;;8.00;8.00;;;;;14.34;69.44;101746.00;5020107;28;45380;-65
2023/05/02 00:46:23;;;;;;;;;7.75;7.75;;;;;14.22;69.62;101732.03;5019838;28;45375;-66
2023/05/02 00:48:49;;;;;;;;;9.25;8.50;;;;;14.33;69.80;101753.16;5018160;28;45500;-66
2023/05/02 00:51:15;;;;;;;;;10.00;8.00;;;;;14.36;69.90;101760.28;5000432;28;46443;-66
2023/05/02 00:53:40;;;;;;;;;7.50;7.50;;;;;14.37;69.91;101759.34;5032452;28;45379;-66
2023/05/02 00:56:07;;;;;;;;;11.00;11.00;;;;;14.17;69.72;101739.38;5034940;28;45390;-65
2023/05/02 00:58:33;;;;;;;;;8.50;7.75;;;;;14.11;69.78;101727.94;5036981;28;45527;-66
2023/05/02 01:01:06;;;;;;;;;12.50;11.75;;;;;14.35;69.71;101775.50;5039381;28;45329;-66
2023/05/02 01:03:51;;;;;;;;;10.00;9.75;;;;;14.29;69.98;101764.09;5041408;28;45847;-65
2023/05/02 01:06:30;;;;;;;;;11.50;10.75;;;;;14.17;70.07;101746.56;5031501;28;45455;-65
2023/05/02 01:09:21;;;;;;;;;13.75;11.50;;;;;14.27;70.13;101761.44;5028189;28;45442;-66
2023/05/02 01:11:55;;;;;;;;;10.00;10.00;;;;;14.29;69.80;101773.00;5023295;28;47291;-66
2023/05/02 01:14:24;;;;;;;;;11.00;9.00;;;;;14.17;70.17;101751.94;5039765;28;45497;-65
2023/05/02 01:16:52;;;;;;;;;9.50;9.00;;;;;14.16;70.23;101745.66;5046806;28;45469;-65
2023/05/02 01:19:30;;;;;;;;;16.25;12.50;;;;;14.23;70.17;101768.72;5041330;28;45395;-66
2023/05/02 01:21:57;;;;;;;;;10.25;10.25;;;;;14.10;70.21;101745.88;5028636;28;45571;-66
2023/05/02 01:24:31;;;;;;;;;9.25;9.25;;;;;14.17;70.40;101759.97;5038944;28;45645;-66
2023/05/02 01:27:09;;;;;;;;;10.00;10.00;;;;;14.22;70.12;101771.47;5040037;28;45354;-66
2023/05/02 01:29:36;;;;;;;;;13.75;11.75;;;;;14.20;70.14;101767.91;5023060;28;45466;-65
2023/05/02 01:32:03;;;;;;;;;13.50;12.00;;;;;14.19;70.33;101771.53;5003240;28;47407;-66
2023/05/02 01:34:31;;;;;;;;;11.25;10.00;;;;;14.16;70.36;101769.81;5028964;28;45639;-66
2023/05/02 01:37:00;;;;;;;;;10.25;9.75;;;;;14.07;70.11;101754.00;5040905;28;45296;-66
2023/05/02 01:39:26;;;;;;;;;14.50;11.75;;;;;14.08;70.41;101761.13;5040622;28;45537;-65
2023/05/02 01:41:55;;;;;;;;;10.50;10.50;;;;;13.94;70.75;101740.06;5040662;28;47197;-66
2023/05/02 01:44:22;;;;;;;;;12.50;11.50;;;;;14.12;70.65;101770.00;5033302;28;45578;-66
2023/05/02 01:46:50;;;;;;;;;9.00;8.00;;;;;14.01;70.62;101756.88;5040786;28;45353;-66
2023/05/02 01:49:15;;;;;;;;;13.25;12.00;;;;;14.01;70.77;101763.13;5038084;28;45498;-66
2023/05/02 01:51:47;;;;;;;;;18.50;11.50;;;;;14.02;70.66;101769.38;5040673;28;45427;-66
2023/05/02 01:54:15;;;;;;;;;10.75;10.75;;;;;13.99;70.78;101764.09;5033111;28;45578;-65
2023/05/02 01:56:42;;;;;;;;;12.25;12.25;;;;;14.00;70.83;101766.75;5040302;28;45396;-66
2023/05/02 01:59:11;;;;;;;;;12.25;12.25;;;;;13.91;70.76;101753.59;5022649;28;45569;-66
2023/05/02 02:01:38;;;;;;;;;11.50;9.25;;;;;14.02;70.62;101764.00;5040264;28;46206;-65
2023/05/02 02:04:07;;;;;;;;;16.00;12.75;;;;;14.06;70.65;101763.84;5037518;28;45540;-65
2023/05/02 02:06:33;;;;;;;;;12.00;12.00;;;;;14.02;70.67;101770.25;5040503;28;45572;-66
2023/05/02 02:08:59;;;;;;;;;16.25;14.00;;;;;13.94;71.02;101766.91;5040161;28;45399;-66
2023/05/02 02:11:32;;;;;;;;;15.00;14.00;;;;;13.88;71.14;101762.63;5039129;28;46128;-65
2023/05/02 02:14:06;;;;;;;;;14.50;12.75;;;;;13.99;71.05;101774.84;5039895;28;45467;-66
2023/05/02 02:16:33;;;;;;;;;13.50;12.50;;;;;13.89;71.13;101759.00;5045677;28;45522;-65
2023/05/02 02:19:04;;;;;;;;;15.50;11.50;;;;;13.90;71.10;101762.59;5019002;28;45430;-65
2023/05/02 02:21:31;;;;;;;;;12.00;12.00;;;;;13.80;71.67;101747.66;5032155;28;46178;-65
2023/05/02 02:24:02;;;;;;;;;15.75;15.00;;;;;13.92;71.17;101782.19;5028110;28;45591;-66
2023/05/02 02:26:27;;;;;;;;;10.25;9.00;;;;;13.89;71.24;101785.84;5021311;28;45366;-66
2023/05/02 02:28:54;;;;;;;;;13.25;12.50;;;;;13.77;70.98;101769.25;5040173;28;45313;-66
2023/05/02 02:31:20;;;;;;;;;19.50;17.25;;;;;13.82;71.13;101772.66;5039909;28;45502;-66
2023/05/02 02:33:45;;;;;;;;;15.50;14.00;;;;;13.83;71.60;101786.03;5015142;28;45381;-65
2023/05/02 02:36:30;;;;;;;;;14.00;12.25;;;;;13.90;71.52;101792.97;5039629;28;45368;-65
2023/05/02 02:39:29;;;;;;;;;12.25;12.25;;;;;13.89;71.64;101790.34;5039743;28;45466;-66
2023/05/02 02:42:07;;;;;;;;;14.50;14.25;;;;;13.77;71.75;101779.97;5035246;28;46082;-66
2023/05/02 02:44:45;;;;;;;;;11.25;10.75;;;;;13.75;71.52;101782.69;5020136;28;45414;-65
2023/05/02 02:47:35;;;;;;;;;15.00;13.50;;;;;13.84;71.46;101809.25;5038499;28;45461;-66
2023/05/02 02:50:19;;;;;;;;;14.25;13.00;;;;;13.77;71.72;101793.41;5039634;28;45428;-65
2023/05/02 02:52:52;;;;;;;;;14.00;12.50;;;;;13.80;71.48;101804.00;5007164;28;47403;-66
2023/05/02 02:55:35;;;;;;;;;15.50;13.50;;;;;13.78;71.76;101803.19;5015362;28;45397;-65
2023/05/02 02:58:10;;;;;;;;;12.50;11.00;;;;;13.77;71.66;101806.81;5039613;28;45479;-66
2023/05/02 03:00:35;;;;;;;;;15.25;15.25;;;;;13.63;71.85;101783.03;5020829;28;45598;-65
2023/05/02 03:03:01;;;;;;;;;13.50;13.00;;;;;13.70;71.94;101806.09;5040356;28;46346;-66
2023/05/02 03:05:28;;;;;;;;;15.00;15.00;;;;;13.64;71.79;101793.72;5037694;28;46038;-66
2023/05/02 03:07:53;;;;;;;;;13.50;10.50;;;;;13.63;72.05;101793.75;5037428;28;45703;-65
2023/05/02 03:10:21;;;;;;;;;16.25;15.25;;;;;13.52;71.92;101775.31;5039010;28;45499;-66
2023/05/02 03:12:46;;;;;;;;;14.75;12.75;;;;;13.56;71.98;101782.31;5024373;28;48108;-66
2023/05/02 03:15:50;;;;;;;;;19.75;14.00;;;;;13.65;71.93;101794.63;5039213;28;45325;-66
2023/05/02 03:18:16;;;;;;;;;15.00;13.75;;;;;13.63;72.15;101799.13;4979553;28;45407;-65
2023/05/02 03:20:41;;;;;;;;;15.00;14.75;;;;;13.59;72.07;101787.63;5035680;28;45320;-66
2023/05/02 03:23:06;;;;;;;;;14.25;14.25;;;;;13.41;72.25;101766.69;5035733;28;46505;-65
2023/05/02 03:25:32;;;;;;;;;14.75;12.50;;;;;13.54;72.31;101789.53;5039076;28;45501;-66
2023/05/02 03:27:57;;;;;;;;;15.75;13.75;;;;;13.59;72.28;101801.03;5017926;28;45333;-66
2023/05/02 03:30:22;;;;;;;;;11.25;10.00;;;;;13.52;72.43;101802.13;5034476;28;46109;-65
2023/05/02 03:32:48;;;;;;;;;18.25;16.50;;;;;13.42;72.41;101781.84;5037449;28;45316;-65
2023/05/02 03:35:14;;;;;;;;;14.25;14.25;;;;;13.49;72.47;101803.06;5021275;28;45613;-65
2023/05/02 03:37:39;;;;;;;;;14.25;13.75;;;;;13.53;72.47;101818.19;5038916;28;45316;-65
2023/05/02 03:40:05;;;;;;;;;17.25;17.00;;;;;13.45;72.36;101806.78;5038476;28;53274;-66
2023/05/02 03:42:31;;;;;;;;;15.50;13.50;;;;;13.48;72.51;101812.06;5038357;28;46060;-66
2023/05/02 03:44:56;;;;;;;;;14.50;14.50;;;;;13.42;72.94;101806.00;5038966;28;45544;-66
2023/05/02 03:47:21;;;;;;;;;14.25;14.25;;;;;13.41;72.56;101802.41;5036402;28;45320;-66
2023/05/02 03:49:46;;;;;;;;;15.75;15.75;;;;;13.41;72.61;101801.53;5038735;28;45382;-66
2023/05/02 03:52:12;;;;;;;;;18.00;15.00;;;;;13.28;72.69;101788.44;5036540;28;46194;-65
2023/05/02 03:54:37;;;;;;;;;15.50;14.75;;;;;13.43;72.62;101805.94;5037367;28;45387;-66
2023/05/02 03:57:03;;;;;;;;;15.75;13.25;;;;;13.49;72.87;101816.50;5038706;28;45471;-66
2023/05/02 03:59:32;;;;;;;;;19.75;19.25;;;;;13.36;72.84;101798.09;5038719;28;45312;-66
2023/05/02 04:01:57;;;;;;;;;17.25;14.00;;;;;13.43;72.68;101803.28;5031162;28;45496;-65
2023/05/02 04:04:23;;;;;;;;;15.75;15.75;;;;;13.43;72.38;101813.09;5020792;28;45336;-66
2023/05/02 04:06:48;;;;;;;;;17.50;16.75;;;;;13.39;72.99;101808.75;5037825;28;45233;-66
2023/05/02 04:09:13;;;;;;;;;16.75;14.00;;;;;13.31;72.97;101799.09;5038332;28;45323;-65
2023/05/02 04:11:39;;;;;;;;;18.00;16.00;;;;;13.38;73.02;101815.94;5036552;28;45304;-65
2023/05/02 04:14:04;;;;;;;;;21.25;20.00;;;;;13.36;73.12;101808.84;5038711;28;45576;-66
2023/05/02 04:16:29;;;;;;;;;16.75;15.00;;;;;13.23;72.97;101779.66;5041753;28;45418;-66
2023/05/02 04:18:55;;;;;;;;;17.00;15.75;;;;;13.29;72.73;101800.91;5033641;28;45499;-66
2023/05/02 04:21:20;;;;;;;;;16.75;14.25;;;;;13.34;73.12;101814.22;5033887;28;45379;-65
2023/05/02 04:23:46;;;;;;;;;17.75;16.75;;;;;13.25;73.08;101818.00;5036137;28;45440;-66
2023/05/02 04:26:11;;;;;;;;;18.50;16.00;;;;;13.13;73.58;101796.88;5020480;28;45450;-66
2023/05/02 04:28:36;;;;;;;;;12.50;12.50;;;;;13.27;73.53;101823.34;5038293;28;45434;-66
2023/05/02 04:31:03;;;;;;;;;16.25;14.50;;;;;13.24;73.57;101828.78;5019677;28;49617;-66
2023/05/02 04:33:29;;;;;;;;;20.75;18.25;;;;;13.24;73.51;101834.13;5038211;28;45645;-65
2023/05/02 04:35:54;;;;;;;;;19.25;17.00;;;;;13.23;73.41;101846.69;5040664;28;45425;-65
2023/05/02 04:38:20;;;;;;;;;18.25;17.00;;;;;13.20;73.74;101835.13;5041627;28;45527;-66
2023/05/02 04:40:45;;;;;;;;;19.50;18.00;;;;;13.20;73.75;101829.75;5041606;28;45480;-66
2023/05/02 04:43:11;;;;;;;;;18.25;17.25;;;;;13.11;73.49;101830.88;5030281;28;45328;-66
2023/05/02 04:45:36;;;;;;;;;19.25;16.25;;;;;13.13;73.75;101837.97;5032246;28;45285;-65
2023/05/02 04:48:02;;;;;;;;;16.25;15.75;;;;;13.18;73.68;101848.59;5020003;28;46042;-66
2023/05/02 04:50:28;;;;;;;;;20.00;16.75;;;;;13.09;73.58;101838.97;5041490;28;46150;-65
2023/05/02 04:52:53;;;;;;;;;19.25;17.25;;;;;13.23;73.74;101861.84;5033544;28;45361;-66
2023/05/02 04:55:19;;;;;;;;;19.50;18.50;;;;;13.19;73.95;101863.75;5041708;28;45342;-65
2023/05/02 04:57:44;;;;;;;;;22.25;18.75;;;;;13.21;73.98;101866.38;5023398;28;45439;-66
2023/05/02 05:00:10;;;;;;;;;18.75;18.25;;;;;13.19;73.77;101863.75;5023381;28;47344;-66
2023/05/02 05:02:37;;;;;;;;;20.75;17.75;;;;;13.20;73.98;101872.66;5035963;28;45396;-66
2023/05/02 05:05:03;;;;;;;;;19.25;18.25;;;;;13.21;73.91;101867.25;5041470;28;45472;-66
2023/05/02 05:07:28;;;;;;;;;19.75;17.00;;;;;13.21;74.12;101871.75;5023229;28;45348;-65
2023/05/02 05:09:53;;;;;;;;;23.00;20.50;;;;;13.21;74.05;101877.97;5022695;28;46970;-66
2023/05/02 05:12:19;;;;;;;;;19.25;17.25;;;;;13.14;73.91;101861.16;5020720;28;45459;-66
2023/05/02 05:14:44;;;;;;;;;21.00;19.25;;;;;13.15;74.17;101862.06;5040849;28;45356;-66
2023/05/02 05:17:09;;;;;;;;;23.00;17.25;;;;;13.14;74.15;101869.22;5046309;28;45423;-66
2023/05/02 05:19:35;;;;;;;;;25.75;21.00;;;;;13.21;73.88;101882.47;5038451;28;45534;-66
2023/05/02 05:22:00;;;;;;;;;20.75;18.75;;;;;13.24;74.02;101885.09;5028833;28;45271;-65
2023/05/02 05:24:26;;;;;;;;;22.25;18.25;;;;;13.22;73.73;101889.59;5037454;28;45867;-66
2023/05/02 05:26:51;;;;;;;;;23.75;22.75;;;;;13.02;74.02;101855.25;5041153;28;45305;-66
2023/05/02 05:29:17;;;;;;;;;21.00;19.50;;;;;13.15;74.08;101871.00;5040565;28;45568;-65
2023/05/02 05:31:43;;;;;;;;;21.50;17.50;;;;;13.11;74.14;101860.38;5037793;28;45261;-66
2023/05/02 05:34:08;;;;;;;;;24.75;19.50;;;;;13.16;74.07;101875.44;5022523;28;45439;-66
2023/05/02 05:36:34;;;;;;;;;18.75;17.25;;;;;13.24;74.27;101895.81;5019700;28;45324;-66
2023/05/02 05:39:00;;;;;;;;;20.50;19.50;;;;;13.27;74.32;101910.00;5022705;28;47092;-65
2023/05/02 05:41:25;;;;;;;;;22.00;18.75;;;;;13.14;74.28;101887.97;5020747;28;45555;-66
2023/05/02 05:43:50;;;;;;;;;20.00;18.50;;;;;13.15;74.24;101904.97;5041009;28;45349;-66
2023/05/02 05:46:16;;;;;;;;;21.25;18.75;;;;;13.04;74.48;101883.78;5040213;28;45388;-65
2023/05/02 05:48:41;;;;;;;;;18.25;13.75;;;;;13.20;74.63;101915.56;5014507;28;46515;-65
2023/05/02 05:51:07;;;;;;;;;23.25;21.50;;;;;13.15;74.51;101908.53;5038033;28;45617;-66
2023/05/02 05:53:32;;;;;;;;;21.00;17.25;;;;;13.06;74.24;101895.31;5037610;28;45824;-66
2023/05/02 05:55:58;;;;;;;;;20.50;18.75;;;;;13.10;74.40;101894.34;5038663;28;45508;-66
2023/05/02 05:58:23;;;;;;;;;20.50;19.50;;;;;13.11;74.70;101900.59;5033950;28;46339;-70
2023/05/02 06:00:49;;;;;;;;;20.75;19.50;;;;;13.25;74.71;101938.66;5033169;28;45388;-71
2023/05/02 06:03:14;;;;;;;;;22.25;19.75;;;;;13.04;74.78;101902.53;5040680;28;45486;-71
2023/05/02 06:05:40;;;;;;;;;27.50;20.50;;;;;13.09;74.65;101910.47;5019404;28;45330;-71
2023/05/02 06:08:09;;;;;;;;;18.25;15.25;;;;;13.28;74.63;101932.34;5029773;28;45921;-79
2023/05/02 06:10:34;;;;;;;;;21.00;19.00;;;;;13.24;74.58;101936.03;5047913;28;45261;-73
2023/05/02 06:13:00;;;;;;;;;23.00;20.00;;;;;13.23;74.32;101947.66;5038315;28;45489;-73
2023/05/02 06:15:25;;;;;;;;;18.25;16.75;;;;;13.30;75.08;101958.22;5046147;28;45457;-72
2023/05/02 06:17:51;;;;;;;;;27.00;19.50;;;;;13.30;74.74;101958.22;5040237;28;45319;-72
2023/05/02 06:20:16;;;;;;;;;26.50;21.75;;;;;13.15;74.99;101929.09;5040184;28;45742;-73
2023/05/02 06:22:42;;;;;;;;;20.75;16.25;;;;;13.11;74.80;101922.03;5041871;28;45486;-72
2023/05/02 06:25:07;;;;;;;;;25.00;23.25;;;;;13.32;75.05;101948.34;5013981;28;45409;-73
2023/05/02 06:27:33;;;;;;;;;23.00;21.00;;;;;13.21;74.52;101934.28;5029356;28;46683;-73
2023/05/02 06:29:58;;;;;;;;;25.75;23.00;;;;;13.33;74.56;101944.75;5021961;28;45446;-73
2023/05/02 06:32:24;;;;;;;;;21.25;20.50;;;;;13.20;74.84;101926.28;5029796;28;45467;-73
2023/05/02 06:34:49;;;;;;;;;29.50;28.75;;;;;13.42;74.56;101959.75;5038409;28;45423;-72
2023/05/02 06:37:14;;;;;;;;;26.50;23.00;;;;;13.29;74.66;101943.03;5039452;28;45530;-73
2023/05/02 06:39:40;;;;;;;;;23.50;21.75;;;;;13.14;74.50;101912.09;5039418;28;45414;-73
2023/05/02 06:42:05;;;;;;;;;24.75;23.50;;;;;13.32;73.95;101942.13;5039966;28;45325;-73
2023/05/02 06:44:31;;;;;;;;;28.25;26.25;;;;;13.31;74.27;101940.31;5037703;28;45233;-72
2023/05/02 06:46:56;;;;;;;;;25.50;22.75;;;;;13.62;73.92;101974.47;5020587;28;47501;-72
2023/05/02 06:49:21;;;;;;;;;27.50;26.25;;;;;13.49;74.03;101955.97;5033668;28;45490;-72
2023/05/02 06:51:47;;;;;;;;;25.25;22.75;;;;;13.47;74.37;101944.41;5036992;28;45788;-72
2023/05/02 06:54:13;;;;;;;;;26.50;25.50;;;;;13.74;74.35;101986.69;5042947;28;45510;-65
2023/05/02 06:56:39;;;;;;;;;31.50;28.00;;;;;13.66;74.17;101971.63;5030871;28;46134;-65
2023/05/02 06:59:04;;;;;;;;;25.25;22.25;;;;;13.73;74.19;101969.69;5033925;28;45603;-65
2023/05/02 07:01:30;;;;;;;;;20.00;19.00;;;;;13.73;73.75;101958.94;5039188;28;45494;-65
2023/05/02 07:03:55;;;;;;;;;28.00;24.00;;;;;13.84;73.32;101975.66;5033563;28;45347;-65
2023/05/02 07:06:21;;;;;;;;;28.50;25.25;;;;;13.84;73.44;101978.34;5038868;28;53214;-65
2023/05/02 07:08:46;;;;;;;;;28.00;24.00;;;;;13.87;73.80;101975.56;5018461;28;46055;-65
2023/05/02 07:11:11;;;;;;;;;21.75;20.00;;;;;13.84;73.12;101972.09;5039462;28;45511;-65
2023/05/02 07:13:36;;;;;;;;;28.25;27.50;;;;;13.89;73.33;101984.47;5014331;28;45651;-66
2023/05/02 07:16:02;;;;;;;;;25.00;22.25;;;;;13.71;73.33;101955.44;5043239;28;45406;-66
2023/05/02 07:18:27;;;;;;;;;26.25;25.00;;;;;13.86;73.49;101970.25;5013030;28;45932;-66
2023/05/02 07:20:53;;;;;;;;;24.75;19.00;;;;;13.81;73.32;101958.75;5038103;28;45489;-65
2023/05/02 07:23:19;;;;;;;;;30.00;25.25;;;;;13.66;72.45;101930.53;5036499;28;45475;-66
2023/05/02 07:25:46;;;;;;;;;28.25;26.75;;;;;13.83;72.53;101963.19;5018816;28;47915;-65
2023/05/02 07:28:11;;;;;;;;;30.25;25.00;;;;;13.90;72.54;101959.41;5019841;28;46157;-65
2023/05/02 07:30:37;;;;;;;;;27.50;25.75;;;;;13.95;72.73;101970.00;5038898;28;45472;-65
2023/05/02 07:33:02;;;;;;;;;34.00;25.75;;;;;13.98;73.00;101974.41;5036840;28;45459;-65
2023/05/02 07:35:28;;;;;;;;;32.00;26.25;;;;;14.05;72.75;101974.22;5037355;28;45571;-65
2023/05/02 07:37:53;;;;;;;;;28.50;27.00;;;;;14.03;72.97;101976.06;5037306;28;45412;-66
2023/05/02 07:40:18;;;;;;;;;28.75;26.50;;;;;14.11;72.83;101983.00;5036652;28;45408;-66
2023/05/02 07:42:44;;;;;;;;;32.75;27.25;;;;;14.03;73.06;101959.06;5028427;28;46432;-66
2023/05/02 07:45:09;;;;;;;;;33.00;28.75;;;;;14.22;72.83;101986.28;5036991;28;46841;-66
2023/05/02 07:47:35;;;;;;;;;29.50;27.25;;;;;14.24;72.73;101989.81;5034860;28;45534;-66
2023/05/02 07:50:02;;;;;;;;;31.25;27.75;;;;;14.36;72.65;101991.28;5040289;28;45513;-66
2023/05/02 07:52:28;;;;;;;;;28.25;28.25;;;;;14.33;71.83;101980.59;5038220;28;45708;-66
2023/05/02 07:54:53;;;;;;;;;32.75;29.00;;;;;14.41;72.79;101995.56;5036238;28;45595;-66
2023/05/02 07:57:18;;;;;;;;;29.00;26.50;;;;;14.41;72.06;101979.47;5017751;28;45414;-66
2023/05/02 07:59:44;;;;;;;;;28.50;27.00;;;;;14.58;71.73;102010.34;5037002;28;50194;-65
2023/05/02 08:02:11;;;;;;;;;27.25;24.25;;;;;14.36;71.73;101959.91;5037373;28;45402;-66
2023/05/02 08:04:37;;;;;;;;;26.25;24.25;;;;;14.54;71.43;101979.13;5047266;28;45570;-66
2023/05/02 08:07:02;;;;;;;;;34.00;29.50;;;;;14.78;71.65;102005.31;5029716;28;45522;-65
2023/05/02 08:09:28;;;;;;;;;29.75;24.50;;;;;14.72;71.71;101983.97;5038859;28;45869;-65
2023/05/02 08:11:53;;;;;;;;;30.75;24.75;;;;;14.76;71.13;101991.00;5022428;28;45412;-65
2023/05/02 08:14:18;;;;;;;;;26.25;24.25;;;;;14.79;71.07;101980.16;5039852;28;45305;-64
2023/05/02 08:16:44;;;;;;;;;21.50;18.00;;;;;15.01;70.48;102014.47;5037177;28;48447;-65
2023/05/02 08:19:09;;;;;;;;;29.00;23.50;;;;;14.98;70.19;101998.44;5021778;28;45745;-65
2023/05/02 08:21:35;;;;;;;;;22.75;22.75;;;;;14.99;70.19;102017.19;5037015;28;46089;-65
2023/05/02 08:24:00;;;;;;;;;26.00;24.25;;;;;15.04;69.71;102019.75;5041318;28;45785;-65
2023/05/02 08:26:26;;;;;;;;;27.50;23.75;;;;;15.07;69.59;102016.06;5038528;28;45611;-65
2023/05/02 08:28:52;;;;;;;;;21.75;16.75;;;;;15.15;69.80;102031.06;5036914;28;45667;-65
2023/05/02 08:31:18;;;;;;;;;22.75;19.25;;;;;15.17;70.37;102021.13;5020934;28;45567;-65
2023/05/02 08:33:44;;;;;;;;;23.50;22.00;;;;;15.28;70.17;102025.28;5036337;28;46184;-65
2023/05/02 08:36:10;;;;;;;;;18.25;15.25;;;;;15.34;69.63;102025.97;5021831;28;45450;-65
2023/05/02 08:38:36;;;;;;;;;25.25;19.75;;;;;15.38;69.37;102026.75;5041368;28;45334;-65
2023/05/02 08:41:01;;;;;;;;;35.00;32.00;;;;;15.26;69.19;101994.88;5039787;28;45582;-65
2023/05/02 08:43:30;;;;;;;;;21.00;21.00;;;;;15.36;69.00;102009.78;5036751;28;45364;-65
2023/05/02 08:46:00;;;;;;;;;25.25;23.50;;;;;15.53;69.03;102028.94;5037582;28;45593;-65
2023/05/02 08:48:27;;;;;;;;;24.00;21.75;;;;;15.49;69.01;102018.34;5041851;28;45364;-65
2023/05/02 08:50:53;;;;;;;;;26.75;24.00;;;;;15.60;68.82;102034.13;5040302;28;45514;-65
2023/05/02 08:53:20;;;;;;;;;23.75;21.50;;;;;15.49;68.86;102013.84;5039677;28;46271;-65
2023/05/02 08:55:47;;;;;;;;;15.75;15.75;;;;;15.59;68.98;102016.25;5018097;28;45673;-69
2023/05/02 08:58:12;;;;;;;;;21.75;19.00;;;;;15.55;68.72;102010.97;5038381;28;45518;-69
2023/05/02 09:00:39;;;;;;;;;23.00;21.75;;;;;15.54;68.10;102009.19;5040065;28;45320;-74
2023/05/02 09:03:21;;;;;;;;;24.25;18.50;;;;;15.54;68.21;102008.31;5038415;28;46401;-70
2023/05/02 09:05:52;;;;;;;;;22.50;19.50;;;;;15.62;67.81;102017.03;5020282;28;45889;-68
2023/05/02 09:08:22;;;;;;;;;14.75;14.25;;;;;15.61;67.58;102009.88;5040381;28;45361;-67
2023/05/02 09:10:48;;;;;;;;;19.25;18.25;;;;;15.74;67.98;102027.38;5039317;28;45495;-69
2023/05/02 09:13:34;;;;;;;;;21.25;20.50;;;;;15.89;67.25;102049.38;5030030;28;45512;-69
2023/05/02 09:16:08;;;;;;;;;24.25;22.75;;;;;15.89;67.69;102052.94;5022571;28;45428;-66
2023/05/02 09:18:39;;;;;;;;;32.50;25.00;;;;;15.87;67.42;102049.41;5040780;28;45328;-66
2023/05/02 09:21:10;;;;;;;;;27.00;24.50;;;;;15.87;67.27;102049.41;5038812;28;45675;-66
2023/05/02 09:23:41;;;;;;;;;21.75;18.00;;;;;15.76;67.25;102031.88;5038303;28;46710;-65
2023/05/02 09:26:15;;;;;;;;;30.25;27.50;;;;;15.89;67.62;102055.63;5039570;28;45641;-66
2023/05/02 09:28:45;;;;;;;;;39.00;33.00;;;;;15.97;67.83;102073.31;5040153;28;45415;-65
2023/05/02 09:31:13;;;;;;;;;36.25;31.75;;;;;15.98;67.66;102084.03;5040899;28;45539;-66
2023/05/02 09:33:40;;;;;;;;;39.75;34.00;;;;;15.86;67.68;102058.41;5039974;28;45377;-67
2023/05/02 09:36:09;;;;;;;;;40.00;35.75;;;;;15.81;67.47;102057.69;5037079;28;45818;-65
2023/05/02 09:38:35;;;;;;;;;36.25;32.00;;;;;15.83;67.45;102081.88;5039694;28;46487;-65
2023/05/02 09:41:02;;;;;;;;;27.25;24.75;;;;;15.79;67.66;102075.72;5039717;28;45349;-65
2023/05/02 09:43:28;;;;;;;;;33.25;29.50;;;;;15.85;67.75;102091.66;5039500;28;46091;-66
2023/05/02 09:46:06;;;;;;;;;43.25;32.50;;;;;15.87;67.63;102103.28;5038042;28;45411;-66
2023/05/02 09:48:50;;;;;;;;;30.00;28.00;;;;;15.85;67.41;102099.72;5038029;28;45474;-66
2023/05/02 09:51:17;;;;;;;;;25.50;25.50;;;;;15.81;67.65;102087.31;5023959;28;45720;-65
2023/05/02 09:53:43;;;;;;;;;32.75;31.25;;;;;15.80;67.38;102090.03;5036478;28;46335;-65
2023/05/02 09:56:09;;;;;;;;;32.25;29.50;;;;;15.83;67.33;102093.50;5024256;28;45534;-65
2023/05/02 09:58:34;;;;;;;;;30.50;29.00;;;;;15.84;67.30;102095.28;5036865;28;45483;-65
2023/05/02 10:00:59;;;;;;;;;25.25;25.25;;;;;15.80;67.57;102087.34;5013250;28;45617;-65
2023/05/02 10:03:26;;;;;;;;;27.00;26.00;;;;;15.81;67.63;102095.38;5034531;28;46321;-65
2023/05/02 10:05:55;;;;;;;;;24.50;21.25;;;;;15.78;67.81;102090.09;5037914;28;45435;-65
2023/05/02 10:08:23;;;;;;;;;23.25;22.25;;;;;15.74;67.69;102075.81;5032961;28;45464;-65
2023/05/02 10:10:55;;;;;;;;;26.25;25.00;;;;;15.74;67.73;102078.53;5036948;28;45515;-65
2023/05/02 10:13:23;;;;;;;;;25.25;22.00;;;;;15.84;67.51;102084.50;5038857;28;46272;-65
2023/05/02 10:15:55;;;;;;;;;25.50;24.25;;;;;15.77;67.44;102080.28;5034758;28;45746;-65
2023/05/02 10:18:27;;;;;;;;;21.75;18.00;;;;;15.82;67.35;102083.69;5042071;28;45576;-65
2023/05/02 10:21:04;;;;;;;;;18.25;16.75;;;;;15.86;67.43;102095.25;5001239;28;45732;-65
2023/05/02 10:23:29;;;;;;;;;25.50;23.75;;;;;15.89;67.37;102087.06;5032579;28;46842;-65
2023/05/02 10:25:57;;;;;;;;;20.00;19.75;;;;;15.98;67.39;102096.63;5039039;28;45342;-65
2023/05/02 10:28:23;;;;;;;;;23.25;22.25;;;;;15.93;66.75;102086.00;5038932;28;45459;-65
2023/05/02 10:30:50;;;;;;;;;19.25;17.00;;;;;15.86;66.88;102073.69;5037733;28;45357;-65
2023/05/02 10:33:18;;;;;;;;;18.25;17.75;;;;;15.97;67.22;102089.47;5019592;28;47217;-65
2023/05/02 10:35:46;;;;;;;;;19.75;19.75;;;;;15.96;67.11;102083.22;5038771;28;45451;-65
2023/05/02 10:38:20;;;;;;;;;17.75;17.75;;;;;16.00;66.90;102078.59;5035435;28;45945;-65
2023/05/02 10:41:00;;;;;;;;;17.25;16.00;;;;;16.04;67.23;102070.38;5037222;28;45760;-67
2023/05/02 10:43:30;;;;;;;;;16.25;16.25;;;;;16.27;67.09;102095.63;5032581;28;45509;-65
2023/05/02 10:45:55;;;;;;;;;22.25;20.25;;;;;16.28;66.31;102086.63;5038228;28;45699;-65
2023/05/02 10:48:23;;;;;;;;;22.75;19.50;;;;;16.32;65.88;102087.41;5036114;28;45393;-65
2023/05/02 10:50:50;;;;;;;;;14.75;14.75;;;;;16.39;65.98;102091.63;5038900;28;46661;-65
2023/05/02 10:53:21;;;;;;;;;16.75;16.00;;;;;16.39;66.22;102089.84;5036883;28;47021;-65
2023/05/02 10:56:10;;;;;;;;;22.75;21.00;;;;;16.43;65.72;102096.84;5016870;28;45457;-65
2023/05/02 10:58:36;;;;;;;;;22.25;20.25;;;;;16.44;65.67;102093.25;5037635;28;45495;-65
2023/05/02 11:01:29;;;;;;;;;21.00;19.50;;;;;16.46;65.54;102088.66;5034791;28;45332;-65
2023/05/02 11:04:00;;;;;;;;;15.75;15.25;;;;;16.48;65.69;102094.00;5033719;28;46211;-65
2023/05/02 11:06:27;;;;;;;;;16.25;14.50;;;;;16.46;65.41;102090.50;5039270;28;45522;-65
2023/05/02 11:09:13;;;;;;;;;14.75;13.25;;;;;16.49;64.89;102087.69;5037172;28;46207;-65
2023/05/02 11:11:40;;;;;;;;;13.25;13.25;;;;;16.57;65.48;102092.78;5034696;28;45556;-65
2023/05/02 11:14:05;;;;;;;;;17.25;17.25;;;;;16.59;65.28;102093.59;5039351;28;46446;-65